createdAt,value
2019-03-24T00:00:51.871Z,81.65
2019-03-24T00:05:52.072Z,81.57
2019-03-24T00:10:51.880Z,81.88
2019-03-24T00:15:52.185Z,82.26
2019-03-24T00:20:51.898Z,82.18
2019-03-24T00:25:51.259Z,82.34
2019-03-24T00:30:50.961Z,82.32
2019-03-24T00:35:50.967Z,82.46
2019-03-24T00:40:49.915Z,82.35
2019-03-24T00:45:49.857Z,82.61
2019-03-24T00:50:50.062Z,82.87
2019-03-24T00:55:49.859Z,82.28
2019-03-24T01:00:49.867Z,83.01
2019-03-24T01:05:50.877Z,83.06
2019-03-24T01:10:50.496Z,83.07
2019-03-24T01:15:49.330Z,82.37
2019-03-24T01:20:49.052Z,83.02
2019-03-24T01:25:48.872Z,82.56
2019-03-24T01:30:48.942Z,83.67
2019-03-24T01:35:48.966Z,83.54
2019-03-24T01:40:49.168Z,83.63
2019-03-24T01:45:58.132Z,84.01
2019-03-24T01:50:49.149Z,84.00
2019-03-24T01:55:47.859Z,83.88
2019-03-24T02:00:47.891Z,84.15
2019-03-24T02:05:46.898Z,83.76
2019-03-24T02:10:46.905Z,83.61
2019-03-24T02:15:45.883Z,82.60
2019-03-24T02:20:45.197Z,82.94
2019-03-24T02:25:46.131Z,82.89
2019-03-24T02:30:45.087Z,83.37
2019-03-24T02:35:43.918Z,82.91
2019-03-24T02:40:43.942Z,83.25
2019-03-24T02:45:45.110Z,82.50
2019-03-24T02:50:44.929Z,82.97
2019-03-24T02:55:44.938Z,82.50
2019-03-24T03:00:44.987Z,81.66
2019-03-24T03:05:44.928Z,81.23
2019-03-24T03:10:43.909Z,81.43
2019-03-24T03:15:43.903Z,80.80
2019-03-24T03:20:45.142Z,80.38
2019-03-24T03:25:46.102Z,80.36
2019-03-24T03:30:46.953Z,79.36
2019-03-24T03:35:46.389Z,77.95
2019-03-24T03:40:46.231Z,78.60
2019-03-24T03:45:45.885Z,77.57
2019-03-24T03:50:45.968Z,77.50
2019-03-24T03:55:47.132Z,77.50
2019-03-24T04:00:47.955Z,77.21
2019-03-24T04:05:48.009Z,77.84
2019-03-24T04:10:47.907Z,77.30
2019-03-24T04:26:30.852Z,76.69
2019-03-24T04:35:45.949Z,78.89
2019-03-24T04:40:46.169Z,78.26
2019-03-24T04:45:45.961Z,77.64
2019-03-24T04:50:47.116Z,77.51
2019-03-24T04:55:46.980Z,78.70
2019-03-24T05:00:46.921Z,78.35
2019-03-24T05:05:46.579Z,78.49
2019-03-24T05:10:46.092Z,77.78
2019-03-24T05:15:45.156Z,78.47
2019-03-24T05:20:45.211Z,78.35
2019-03-24T05:25:43.948Z,77.79
2019-03-24T05:30:44.159Z,78.74
2019-03-24T05:35:43.125Z,77.80
2019-03-24T05:40:43.162Z,78.87
2019-03-24T05:45:43.103Z,79.33
2019-03-24T05:50:42.998Z,77.89
2019-03-24T05:55:42.094Z,78.58
2019-03-24T06:05:41.925Z,79.15
2019-03-24T06:10:41.170Z,80.04
2019-03-24T06:15:40.962Z,79.04
2019-03-24T06:20:40.223Z,78.99
2019-03-24T06:25:40.010Z,79.87
2019-03-24T06:30:38.936Z,78.77
2019-03-24T06:35:38.980Z,80.84
2019-03-24T06:40:38.990Z,79.80
2019-03-24T06:45:39.165Z,79.74
2019-03-24T06:50:39.990Z,80.79
2019-03-24T06:55:40.230Z,80.85
2019-03-24T07:00:38.953Z,80.46
2019-03-24T07:05:38.967Z,81.30
2019-03-24T07:10:38.983Z,80.41
2019-03-24T07:15:38.157Z,81.54
2019-03-24T07:20:37.076Z,82.03
2019-03-24T07:25:37.173Z,81.33
2019-03-24T07:30:36.317Z,81.41
2019-03-24T07:35:35.325Z,81.67
2019-03-24T07:40:34.093Z,79.28
2019-03-24T07:45:33.180Z,79.80
2019-03-24T07:50:33.085Z,79.52
2019-03-24T07:55:33.087Z,78.91
2019-03-24T08:00:31.972Z,79.46
2019-03-24T08:05:31.001Z,79.32
2019-03-24T08:10:31.030Z,77.09
2019-03-24T08:15:30.048Z,77.17
2019-03-24T08:20:30.050Z,77.38
2019-03-24T08:25:30.184Z,75.72
2019-03-24T08:30:30.041Z,78.68
2019-03-24T08:35:29.411Z,76.74
2019-03-24T08:40:29.006Z,76.12
2019-03-24T08:45:29.021Z,74.27
2019-03-24T08:50:29.031Z,73.17
2019-03-24T08:55:29.272Z,73.69
2019-03-24T09:00:30.941Z,76.08
2019-03-24T09:05:29.230Z,73.98
2019-03-24T09:10:29.273Z,72.85
2019-03-24T09:15:29.018Z,72.57
2019-03-24T09:20:29.022Z,70.17
2019-03-24T09:25:28.034Z,71.92
2019-03-24T09:30:28.028Z,71.03
2019-03-24T09:35:28.051Z,71.93
2019-03-24T09:40:27.063Z,72.66
2019-03-24T09:45:27.004Z,70.53
2019-03-24T09:50:27.109Z,71.01
2019-03-24T09:55:27.042Z,71.11
2019-03-24T10:00:26.490Z,71.92
2019-03-24T10:05:26.160Z,71.18
2019-03-24T10:10:26.005Z,72.14
2019-03-24T10:15:25.082Z,71.33
2019-03-24T10:20:24.067Z,70.36
2019-03-24T10:25:23.074Z,72.65
2019-03-24T10:30:22.022Z,71.94
2019-03-24T10:35:23.090Z,71.49
2019-03-24T10:40:28.706Z,69.88
2019-03-24T10:45:22.092Z,69.98
2019-03-24T10:50:22.087Z,66.40
2019-03-24T10:55:21.123Z,64.49
2019-03-24T11:00:21.050Z,67.61
2019-03-24T11:10:20.102Z,65.60
2019-03-24T11:15:20.069Z,64.52
2019-03-24T11:20:20.045Z,64.24
2019-03-24T11:25:20.023Z,63.67
2019-03-24T11:30:21.079Z,64.01
2019-03-24T11:35:21.048Z,64.59
2019-03-24T11:40:20.102Z,64.12
2019-03-24T11:45:19.995Z,62.78
2019-03-24T11:50:20.047Z,59.84
2019-03-24T11:55:19.038Z,60.81
2019-03-24T12:00:18.425Z,63.63
2019-03-24T12:05:18.013Z,61.13
2019-03-24T12:10:18.125Z,61.58
2019-03-24T12:15:17.998Z,61.27
2019-03-24T12:20:18.012Z,58.86
2019-03-24T12:25:19.028Z,58.93
2019-03-24T12:30:19.062Z,58.44
2019-03-24T12:35:19.122Z,55.00
2019-03-24T12:40:18.123Z,54.12
2019-03-24T12:45:17.008Z,55.80
2019-03-24T12:50:17.017Z,57.29
2019-03-24T12:55:16.059Z,56.10
2019-03-24T13:05:16.051Z,53.76
2019-03-24T13:10:16.042Z,50.04
2019-03-24T13:15:16.034Z,54.26
2019-03-24T13:20:26.732Z,51.51
2019-03-24T13:25:15.040Z,48.98
2019-03-24T13:30:15.020Z,51.95
2019-03-24T13:35:15.075Z,47.61
2019-03-24T13:40:16.029Z,50.13
2019-03-24T13:50:17.003Z,46.02
2019-03-24T13:55:15.991Z,52.35
2019-03-24T14:00:15.116Z,47.58
2019-03-24T14:05:16.051Z,51.60
2019-03-24T14:15:15.102Z,48.73
2019-03-24T14:20:15.112Z,47.70
2019-03-24T14:25:15.075Z,47.99
2019-03-24T14:30:15.163Z,46.78
2019-03-24T14:35:15.081Z,47.37
2019-03-24T14:45:15.097Z,42.76
2019-03-24T14:50:15.027Z,47.98
2019-03-24T14:55:14.029Z,43.50
2019-03-24T15:00:13.064Z,42.30
2019-03-24T15:05:12.101Z,41.57
2019-03-24T15:10:11.382Z,45.10
2019-03-24T15:15:10.326Z,39.61
2019-03-24T15:20:09.092Z,47.02
2019-03-24T15:25:09.030Z,44.34
2019-03-24T15:30:08.039Z,41.75
2019-03-24T15:35:08.064Z,43.38
2019-03-24T15:40:09.039Z,47.38
2019-03-24T15:45:09.105Z,47.52
2019-03-24T15:50:09.035Z,49.41
2019-03-24T15:55:09.019Z,47.10
2019-03-24T16:00:09.093Z,48.71
2019-03-24T16:05:11.095Z,49.78
2019-03-24T16:10:10.024Z,50.17
2019-03-24T16:15:09.065Z,48.21
2019-03-24T16:20:08.332Z,52.10
2019-03-24T16:25:09.312Z,47.61
2019-03-24T16:30:09.040Z,52.06
2019-03-24T16:35:08.042Z,51.25
2019-03-24T16:40:07.049Z,49.64
2019-03-24T16:45:07.121Z,50.00
2019-03-24T16:50:07.210Z,52.91
2019-03-24T16:55:06.055Z,53.29
2019-03-24T17:00:06.083Z,54.54
2019-03-24T17:05:05.757Z,53.25
2019-03-24T17:10:04.233Z,53.77
2019-03-24T17:15:05.084Z,55.75
2019-03-24T17:25:04.294Z,54.05
2019-03-24T17:30:03.120Z,54.90
2019-03-24T17:35:02.668Z,57.70
2019-03-24T17:40:02.038Z,56.06
2019-03-24T17:45:02.320Z,51.84
2019-03-24T17:50:02.164Z,52.21
2019-03-24T17:55:02.069Z,52.10
2019-03-24T18:00:02.059Z,51.16
2019-03-24T18:05:01.104Z,53.67
2019-03-24T18:10:00.101Z,54.80
2019-03-24T18:14:59.045Z,55.94
2019-03-24T18:19:59.237Z,58.43
2019-03-24T18:24:59.093Z,58.91
2019-03-24T18:29:58.335Z,61.40
2019-03-24T18:34:58.083Z,62.07
2019-03-24T18:39:57.054Z,62.84
2019-03-24T18:44:56.056Z,63.16
2019-03-24T18:54:58.087Z,62.56
2019-03-24T18:59:58.298Z,63.90
2019-03-24T19:04:58.135Z,64.11
2019-03-24T19:09:57.260Z,64.67
2019-03-24T19:14:56.033Z,65.42
2019-03-24T19:19:57.126Z,65.52
2019-03-24T19:24:57.094Z,65.52
2019-03-24T19:29:58.104Z,66.29
2019-03-24T19:34:58.059Z,65.57
2019-03-24T19:39:59.132Z,66.10
2019-03-24T19:44:59.225Z,65.55
2019-03-24T19:49:58.203Z,63.86
2019-03-24T19:54:57.090Z,63.99
2019-03-24T19:59:56.602Z,64.47
2019-03-24T20:04:57.172Z,64.03
2019-03-24T20:09:57.138Z,64.33
2019-03-24T20:14:57.108Z,64.16
2019-03-24T20:19:57.114Z,62.94
2019-03-24T20:24:58.058Z,64.60
2019-03-24T20:29:58.382Z,65.32
2019-03-24T20:34:58.063Z,65.53
2019-03-24T20:39:58.219Z,66.10
2019-03-24T20:44:58.280Z,66.25
2019-03-24T20:49:58.126Z,67.04
2019-03-24T20:54:59.152Z,67.01
2019-03-24T20:59:58.290Z,67.02
2019-03-24T21:04:57.575Z,67.28
2019-03-24T21:09:56.209Z,67.81
2019-03-24T21:19:55.316Z,68.94
2019-03-24T21:24:55.078Z,69.78
2019-03-24T21:29:54.082Z,69.71
2019-03-24T21:34:54.134Z,70.09
2019-03-24T21:39:54.170Z,69.92
2019-03-24T21:44:53.112Z,70.66
2019-03-24T21:49:52.527Z,71.01
2019-03-24T21:54:52.146Z,71.79
2019-03-24T21:59:51.199Z,71.50
2019-03-24T22:04:51.247Z,72.02
2019-03-24T22:09:51.798Z,70.24
2019-03-24T22:14:50.776Z,70.58
2019-03-24T22:19:50.819Z,70.28
2019-03-24T22:24:50.771Z,71.06
2019-03-24T22:29:50.979Z,70.38
2019-03-24T22:34:50.823Z,70.66
2019-03-24T22:39:50.080Z,71.25
2019-03-24T22:44:50.832Z,70.13
2019-03-24T22:49:49.810Z,70.51
2019-03-24T22:54:50.815Z,71.92
2019-03-24T22:59:49.850Z,72.03
2019-03-24T23:09:51.854Z,74.54
2019-03-24T23:14:50.834Z,74.21
2019-03-24T23:19:50.793Z,72.93
2019-03-24T23:24:49.898Z,72.80
2019-03-24T23:29:48.886Z,72.04
2019-03-24T23:34:48.850Z,72.69
2019-03-24T23:39:47.824Z,73.21
2019-03-24T23:44:46.785Z,73.10
2019-03-24T23:49:46.831Z,73.16
2019-03-24T23:54:47.927Z,72.08
2019-03-24T23:59:47.134Z,72.31
